Time;durP1;ratioP1;P1;durP2;ratioP2;P2;SDS_P1;SDS_P2;PMS_P1;PMS_P2;Temp;Humidity;BMP_temperature;BMP_pressure;BME280_temperature;BME280_humidity;BME280_pressure;Samples;Min_cycle;Max_cycle;Signal;HPM_P1;HPM_P2
2021/12/15 00:02:20;;;;;;;69.47;29.50;;;;;;;;;;5008071;28;20202;-82
2021/12/15 00:04:51;;;;;;;53.03;24.45;;;6.50;99.90;;;;;;5013513;28;20206;-81
2021/12/15 00:07:18;;;;;;;58.70;27.48;;;6.40;99.90;;;;;;5011291;28;20194;-82
2021/12/15 00:09:45;;;;;;;59.78;28.08;;;6.30;99.90;;;;;;4992633;28;21582;-85
2021/12/15 00:12:13;;;;;;;51.47;24.05;;;6.40;99.90;;;;;;5019871;28;20241;-78
2021/12/15 00:14:39;;;;;;;63.17;26.85;;;;;;;;;;5032165;28;20189;-80
2021/12/15 00:17:05;;;;;;;61.88;27.45;;;;;;;;;;5018909;28;20220;-83
2021/12/15 00:19:31;;;;;;;61.37;26.87;;;6.50;99.90;;;;;;5008284;28;20193;-84
2021/12/15 00:21:57;;;;;;;66.13;28.90;;;6.50;99.90;;;;;;4985627;28;20474;-83
2021/12/15 00:24:24;;;;;;;54.25;26.77;;;6.50;99.90;;;;;;5003861;28;20286;-80
2021/12/15 00:26:50;;;;;;;65.07;25.77;;;;;;;;;;5005073;28;20189;-82
2021/12/15 00:29:16;;;;;;;64.40;25.48;;;;;;;;;;5010060;28;20213;-80
2021/12/15 00:31:45;;;;;;;61.00;27.00;;;;;;;;;;5014895;28;21176;-85
2021/12/15 00:34:11;;;;;;;55.05;24.48;;;6.50;99.90;;;;;;5012736;28;20456;-80
2021/12/15 00:36:37;;;;;;;56.57;26.70;;;6.40;99.90;;;;;;4995778;28;20200;-82
2021/12/15 00:39:06;;;;;;;55.90;27.05;;;6.40;99.90;;;;;;5012863;28;20197;-82
2021/12/15 00:41:32;;;;;;;59.65;27.02;;;6.30;99.90;;;;;;5005604;28;20936;-84
2021/12/15 00:43:58;;;;;;;50.77;26.53;;;;;;;;;;5016323;28;20230;-84
2021/12/15 00:46:24;;;;;;;66.75;28.92;;;;;;;;;;5012825;28;20507;-82
2021/12/15 00:48:50;;;;;;;70.47;29.10;;;;;;;;;;5015978;28;20208;-80
2021/12/15 00:51:16;;;;;;;60.67;28.77;;;6.20;99.90;;;;;;5016582;28;20190;-85
2021/12/15 00:53:42;;;;;;;61.57;29.60;;;;;;;;;;5016404;28;20206;-87
2021/12/15 00:56:08;;;;;;;71.85;28.58;;;6.20;99.90;;;;;;5015985;28;20439;-81
2021/12/15 00:58:33;;;;;;;76.37;32.20;;;6.10;99.90;;;;;;5006708;28;20549;-82
2021/12/15 01:01:01;;;;;;;76.73;29.57;;;6.00;99.90;;;;;;5023637;28;20728;-80
2021/12/15 01:03:29;;;;;;;82.30;32.83;;;;;;;;;;5008470;28;20228;-84
2021/12/15 01:06:03;;;;;;;66.80;28.10;;;6.00;99.90;;;;;;5008664;28;20190;-84
2021/12/15 01:08:30;;;;;;;67.70;29.17;;;6.20;99.90;;;;;;4997542;28;20181;-85
2021/12/15 01:11:17;;;;;;;79.32;30.30;;;6.20;99.90;;;;;;4999875;28;20268;-82
2021/12/15 01:19:47;;;;;;;116.45;36.65;;;6.20;99.90;;;;;;5019757;28;20188;-83
2021/12/15 01:22:15;;;;;;;103.13;33.67;;;6.20;99.90;;;;;;5000410;28;20755;-84
2021/12/15 01:24:41;;;;;;;99.82;34.45;;;6.20;99.90;;;;;;4997219;28;20221;-85
2021/12/15 01:27:07;;;;;;;83.00;30.97;;;;;;;;;;5012481;28;20194;-83
2021/12/15 01:29:33;;;;;;;93.07;35.30;;;6.50;99.90;;;;;;4998760;28;20339;-82
2021/12/15 01:31:59;;;;;;;89.83;32.50;;;;;;;;;;5017241;28;20272;-82
2021/12/15 01:34:25;;;;;;;80.43;32.47;;;;;;;;;;5012347;28;20296;-84
2021/12/15 01:36:51;;;;;;;74.53;30.90;;;;;;;;;;5020355;28;20320;-81
2021/12/15 01:39:16;;;;;;;88.93;32.20;;;6.70;99.90;;;;;;5008622;28;20447;-81
2021/12/15 01:41:43;;;;;;;73.93;31.80;;;;;;;;;;4998944;28;20556;-82
2021/12/15 01:46:57;;;;;;;83.43;32.88;;;6.70;99.90;;;;;;5026616;28;20223;-85
2021/12/15 01:49:42;;;;;;;94.35;31.85;;;6.50;99.90;;;;;;5018069;28;20893;-83
2021/12/15 01:52:16;;;;;;;75.03;29.63;;;6.60;99.90;;;;;;5020671;28;20179;-87
2021/12/15 01:54:46;;;;;;;93.68;31.50;;;6.30;99.90;;;;;;5014564;28;20273;-83
2021/12/15 01:57:14;;;;;;;77.13;30.58;;;6.20;99.90;;;;;;5012747;28;20179;-85
2021/12/15 01:59:42;;;;;;;91.75;33.10;;;6.10;99.90;;;;;;5014694;28;20236;-84
2021/12/15 02:02:07;;;;;;;102.22;35.03;;;6.10;99.90;;;;;;4998123;28;20248;-80
2021/12/15 02:04:36;;;;;;;77.90;31.97;;;;;;;;;;4997278;28;20198;-83
2021/12/15 02:07:04;;;;;;;91.80;33.00;;;6.30;99.90;;;;;;5009598;28;20189;-77
2021/12/15 02:10:01;;;;;;;96.13;34.17;;;;;;;;;;5003386;28;20711;-80
2021/12/15 02:12:32;;;;;;;90.07;31.38;;;6.50;99.90;;;;;;5010093;28;21186;-82
2021/12/15 02:14:59;;;;;;;79.93;31.90;;;;;;;;;;4995145;28;20187;-83
2021/12/15 02:17:25;;;;;;;94.78;32.65;;;6.60;99.90;;;;;;5010900;28;20221;-81
2021/12/15 02:19:51;;;;;;;78.65;31.83;;;6.60;99.90;;;;;;5000138;28;20191;-83
2021/12/15 02:22:17;;;;;;;81.73;31.13;;;6.50;99.90;;;;;;5015046;28;20279;-81
2021/12/15 02:24:44;;;;;;;78.22;31.52;;;;;;;;;;4998997;28;20199;-83
2021/12/15 02:27:13;;;;;;;81.53;31.15;;;6.40;99.90;;;;;;4999767;28;20538;-83
2021/12/15 02:29:42;;;;;;;75.50;29.70;;;6.50;99.90;;;;;;5005488;28;20202;-84
2021/12/15 02:32:29;;;;;;;88.82;32.17;;;6.60;99.90;;;;;;4997929;28;20273;-85
2021/12/15 02:37:39;;;;;;;79.18;31.10;;;6.60;99.90;;;;;;5017901;28;20196;-80
2021/12/15 02:40:10;;;;;;;88.40;31.60;;;6.60;99.90;;;;;;5021295;28;20186;-84
2021/12/15 02:42:42;;;;;;;64.68;28.05;;;6.40;99.90;;;;;;5016030;28;20783;-84
2021/12/15 02:45:13;;;;;;;69.07;27.80;;;6.40;99.90;;;;;;4993514;28;20209;-84
2021/12/15 02:47:39;;;;;;;79.78;31.08;;;6.50;99.90;;;;;;4995115;28;20178;-83
2021/12/15 02:50:08;;;;;;;84.27;31.80;;;6.60;99.90;;;;;;5005445;28;20210;-85
2021/12/15 02:52:35;;;;;;;81.38;29.63;;;6.50;99.90;;;;;;5009554;28;21081;-85
2021/12/15 02:55:01;;;;;;;77.80;30.58;;;6.50;99.90;;;;;;5007091;28;20792;-84
2021/12/15 02:57:27;;;;;;;92.13;35.53;;;6.40;99.90;;;;;;4994948;28;21703;-84
2021/12/15 03:00:05;;;;;;;81.03;34.00;;;6.30;99.90;;;;;;4994409;28;20201;-80
2021/12/15 03:05:11;;;;;;;72.03;30.45;;;6.10;99.90;;;;;;5011703;28;20182;-82
2021/12/15 03:07:47;;;;;;;85.90;31.10;;;6.10;99.90;;;;;;5016936;28;20753;-86
2021/12/15 03:15:47;;;;;;;70.70;30.83;;;6.00;99.90;;;;;;5012859;28;20188;-85
2021/12/15 03:18:19;;;;;;;76.38;29.55;;;6.10;99.90;;;;;;5020646;28;20178;-85
2021/12/15 03:20:53;;;;;;;83.00;32.03;;;6.20;99.90;;;;;;5014866;28;20597;-84
2021/12/15 03:23:30;;;;;;;74.25;30.38;;;6.30;99.90;;;;;;4996556;28;20201;-84
2021/12/15 03:25:57;;;;;;;75.90;31.65;;;6.40;99.90;;;;;;5009810;28;20177;-84
2021/12/15 03:34:09;;;;;;;82.55;29.00;;;6.50;99.90;;;;;;5012043;28;20766;-80
2021/12/15 03:39:22;;;;;;;78.50;29.70;;;6.60;99.90;;;;;;5016634;28;20178;-82
2021/12/15 03:41:57;;;;;;;85.80;30.55;;;6.70;99.90;;;;;;5013228;28;20216;-83
2021/12/15 03:44:23;;;;;;;71.95;27.45;;;7.30;99.90;;;;;;5002623;28;20209;-83
2021/12/15 03:46:48;;;;;;;82.60;29.90;;;6.70;99.90;;;;;;5013971;28;20186;-84
2021/12/15 03:49:14;;;;;;;91.33;30.70;;;;;;;;;;5015195;28;20514;-80
2021/12/15 03:51:40;;;;;;;96.17;32.27;;;;;;;;;;5012448;28;20178;-85
2021/12/15 03:54:06;;;;;;;84.55;32.58;;;6.20;99.90;;;;;;5013923;28;20495;-83
2021/12/15 03:56:34;;;;;;;85.63;30.37;;;;;;;;;;5019938;28;20300;-83
2021/12/15 03:59:00;;;;;;;77.85;29.95;;;6.20;99.90;;;;;;5013969;28;20182;-84
2021/12/15 04:01:26;;;;;;;74.17;31.67;;;6.20;99.90;;;;;;4992785;28;20212;-82
2021/12/15 04:03:54;;;;;;;77.57;29.20;;;6.10;99.90;;;;;;5001260;28;20854;-84
2021/12/15 04:06:25;;;;;;;76.82;30.13;;;6.10;99.90;;;;;;4993824;28;20715;-84
2021/12/15 04:08:50;;;;;;;87.60;33.42;;;6.20;99.90;;;;;;4997613;28;20548;-83
2021/12/15 04:11:19;;;;;;;98.70;32.50;;;6.20;99.90;;;;;;4995443;28;20182;-83
2021/12/15 04:13:47;;;;;;;69.85;29.20;;;6.20;99.90;;;;;;4996675;28;20210;-85
2021/12/15 04:16:39;;;;;;;92.45;32.15;;;6.10;99.90;;;;;;4997518;28;20193;-83
2021/12/15 04:19:05;;;;;;;97.30;34.75;;;6.00;99.90;;;;;;5013614;28;20215;-82
2021/12/15 04:21:33;;;;;;;118.22;34.40;;;6.00;99.90;;;;;;4999500;28;20252;-84
2021/12/15 04:23:59;;;;;;;168.00;36.67;;;6.10;99.90;;;;;;5018219;28;20225;-85
2021/12/15 04:26:26;;;;;;;110.75;32.42;;;6.00;99.90;;;;;;5006046;28;20193;-85
2021/12/15 04:28:52;;;;;;;142.85;34.90;;;;;;;;;;4993347;28;20179;-83
2021/12/15 04:31:22;;;;;;;162.55;37.33;;;6.10;99.90;;;;;;5011636;28;20208;-80
2021/12/15 04:34:11;;;;;;;126.03;32.30;;;5.30;99.90;;;;;;5012796;28;20520;-82
2021/12/15 04:36:41;;;;;;;98.38;33.53;;;6.00;99.90;;;;;;5012586;28;20190;-84
2021/12/15 04:39:09;;;;;;;221.80;42.25;;;9.40;99.90;;;;;;4998217;28;20241;-83
2021/12/15 04:41:35;;;;;;;208.07;40.78;;;6.10;99.90;;;;;;5008852;28;20302;-84
2021/12/15 04:44:08;;;;;;;144.60;36.83;;;6.10;99.90;;;;;;5003282;28;20232;-83
2021/12/15 04:46:37;;;;;;;119.32;36.83;;;6.10;99.90;;;;;;5013382;28;20276;-80
2021/12/15 04:49:06;;;;;;;128.27;37.92;;;5.90;99.90;;;;;;5017734;28;20162;-81
2021/12/15 04:51:32;;;;;;;113.55;37.65;;;;;;;;;;5014959;28;20178;-83
2021/12/15 04:53:58;;;;;;;104.30;34.72;;;5.90;99.90;;;;;;5007034;28;20217;-85
2021/12/15 04:56:25;;;;;;;150.95;39.83;;;;;;;;;;5004632;28;20193;-86
2021/12/15 04:58:53;;;;;;;120.57;34.60;;;6.20;99.90;;;;;;5020059;28;20174;-85
2021/12/15 05:01:19;;;;;;;116.93;35.10;;;6.20;99.90;;;;;;5002172;28;20585;-81
2021/12/15 05:03:45;;;;;;;92.95;35.53;;;6.30;99.90;;;;;;5015215;28;20310;-82
2021/12/15 05:06:11;;;;;;;136.77;41.37;;;;;;;;;;5000270;28;20281;-85
2021/12/15 05:08:38;;;;;;;106.70;34.73;;;6.20;99.90;;;;;;5013603;28;20189;-80
2021/12/15 05:11:05;;;;;;;140.60;39.13;;;6.20;99.90;;;;;;5004346;28;20447;-81
2021/12/15 05:13:31;;;;;;;220.27;43.50;;;6.30;99.90;;;;;;5024146;28;20202;-82
2021/12/15 05:15:59;;;;;;;209.38;42.17;;;;;;;;;;5014021;28;20202;-85
2021/12/15 05:18:25;;;;;;;122.30;40.63;;;;;;;;;;5011313;28;20235;-88
2021/12/15 05:20:53;;;;;;;132.18;40.10;;;;;;;;;;5013196;28;20429;-85
2021/12/15 05:23:20;;;;;;;134.70;42.70;;;6.20;99.90;;;;;;4997109;28;20201;-85
2021/12/15 05:25:47;;;;;;;182.13;45.88;;;6.30;99.90;;;;;;5018500;28;20185;-80
2021/12/15 05:28:13;;;;;;;157.30;37.08;;;6.50;99.90;;;;;;4998263;28;20182;-84
2021/12/15 05:30:39;;;;;;;204.37;43.40;;;6.30;99.90;;;;;;5010929;28;20186;-84
2021/12/15 05:33:05;;;;;;;223.77;46.67;;;6.30;99.90;;;;;;5012619;28;20218;-82
2021/12/15 05:35:33;;;;;;;227.82;46.80;;;6.40;99.90;;;;;;5012653;28;20196;-86
2021/12/15 05:37:59;;;;;;;484.25;68.57;;;6.30;99.90;;;;;;4994506;28;20189;-81
2021/12/15 05:40:27;;;;;;;466.08;67.20;;;6.30;99.90;;;;;;4990028;28;22438;-84
2021/12/15 05:42:56;;;;;;;387.52;54.63;;;6.30;99.90;;;;;;5001726;28;20221;-82
2021/12/15 05:45:26;;;;;;;351.02;53.97;;;6.30;99.90;;;;;;4981459;28;20198;-81
2021/12/15 05:47:51;;;;;;;328.17;53.72;;;6.30;99.90;;;;;;4988051;28;20747;-80
2021/12/15 05:50:18;;;;;;;352.60;55.33;;;6.40;99.90;;;;;;5008698;28;20244;-81
2021/12/15 05:52:44;;;;;;;323.40;52.33;;;6.40;99.90;;;;;;5019167;28;20606;-80
2021/12/15 05:55:12;;;;;;;174.90;42.60;;;6.40;99.90;;;;;;5025061;28;20198;-84
2021/12/15 05:57:41;;;;;;;182.75;42.65;;;6.40;99.90;;;;;;5021783;28;20483;-78
2021/12/15 06:00:11;;;;;;;255.48;44.78;;;6.40;99.90;;;;;;5024668;28;20196;-82
2021/12/15 06:02:36;;;;;;;307.05;48.92;;;6.40;99.90;;;;;;5008486;28;20215;-81
2021/12/15 06:05:03;;;;;;;338.20;53.83;;;6.40;99.90;;;;;;4997734;28;20174;-84
2021/12/15 06:07:30;;;;;;;214.27;42.60;;;6.50;99.90;;;;;;5007316;28;20205;-85
2021/12/15 06:09:56;;;;;;;227.13;47.90;;;6.50;99.90;;;;;;4995879;28;20186;-84
2021/12/15 06:12:22;;;;;;;443.63;60.40;;;6.60;99.90;;;;;;5012383;28;20186;-83
2021/12/15 06:14:48;;;;;;;393.23;57.05;;;6.60;99.90;;;;;;5022251;28;20464;-84
2021/12/15 06:17:15;;;;;;;484.37;70.40;;;6.60;99.90;;;;;;5016839;28;20832;-83
2021/12/15 06:19:41;;;;;;;164.80;39.00;;;6.60;99.90;;;;;;4997188;28;20468;-83
2021/12/15 06:22:10;;;;;;;93.63;33.90;;;6.50;99.90;;;;;;5029689;28;20202;-81
2021/12/15 06:24:36;;;;;;;119.22;36.53;;;6.60;99.90;;;;;;5005789;28;20527;-85
2021/12/15 06:27:09;;;;;;;223.57;48.73;;;6.60;99.90;;;;;;5000468;28;20268;-83
2021/12/15 06:29:36;;;;;;;102.88;37.08;;;6.60;99.90;;;;;;5014632;28;20201;-85
2021/12/15 06:32:04;;;;;;;113.57;38.65;;;6.70;99.90;;;;;;4991095;28;20178;-81
2021/12/15 06:34:30;;;;;;;112.85;37.05;;;6.70;99.90;;;;;;4997551;28;20198;-83
2021/12/15 06:36:56;;;;;;;93.87;34.60;;;6.70;99.90;;;;;;4991442;28;20216;-85
2021/12/15 06:39:22;;;;;;;92.15;34.83;;;6.70;99.90;;;;;;4997687;28;20186;-83
2021/12/15 06:41:48;;;;;;;78.57;30.70;;;6.70;99.90;;;;;;4995711;28;20271;-81
2021/12/15 06:44:15;;;;;;;101.60;35.37;;;;;;;;;;5005288;28;20528;-85
2021/12/15 06:47:21;;;;;;;85.75;32.97;;;6.50;99.90;;;;;;5019490;28;20260;-85
2021/12/15 07:00:28;;;;;;;81.88;32.50;;;6.70;99.90;;;;;;5019661;28;20197;-84
2021/12/15 07:02:55;;;;;;;199.70;41.97;;;6.70;99.90;;;;;;4989333;28;20705;-84
2021/12/15 07:05:22;;;;;;;259.23;44.70;;;6.60;99.90;;;;;;5000443;28;20185;-85
2021/12/15 07:07:50;;;;;;;144.10;41.17;;;6.40;99.90;;;;;;5008471;28;20175;-86
2021/12/15 07:10:19;;;;;;;113.90;35.80;;;6.40;99.90;;;;;;5002434;28;20194;-85
2021/12/15 07:12:45;;;;;;;153.85;36.97;;;;;;;;;;4994059;28;20183;-86
2021/12/15 07:15:11;;;;;;;115.37;37.57;;;;;;;;;;5012626;28;20184;-85
2021/12/15 07:17:39;;;;;;;343.10;49.55;;;6.30;99.90;;;;;;5007562;28;20463;-81
2021/12/15 07:20:29;;;;;;;498.70;64.25;;;6.30;99.90;;;;;;5007123;28;20174;-85
2021/12/15 07:22:53;;;;;;;299.05;54.25;;;6.20;99.90;;;;;;5008179;28;20586;-85
2021/12/15 07:25:19;;;;;;;170.70;43.07;;;;;;;;;;5012439;28;20185;-85
2021/12/15 07:27:44;;;;;;;186.65;41.00;;;6.10;99.90;;;;;;4990199;28;20189;-80
2021/12/15 07:30:11;;;;;;;209.77;45.63;;;6.20;99.90;;;;;;5016996;28;20903;-85
2021/12/15 07:32:37;;;;;;;305.40;50.72;;;6.90;99.90;;;;;;4986152;28;20209;-83
2021/12/15 07:35:04;;;;;;;326.58;49.67;;;6.20;99.90;;;;;;4992245;28;20202;-82
2021/12/15 07:37:32;;;;;;;472.77;72.70;;;6.30;99.90;;;;;;5008517;28;20182;-85
2021/12/15 07:39:59;;;;;;;326.58;59.72;;;;;;;;;;4993009;28;20195;-84
2021/12/15 07:42:35;;;;;;;170.88;40.13;;;6.40;99.90;;;;;;5011261;28;20197;-85
2021/12/15 07:45:03;;;;;;;120.85;40.83;;;6.30;99.90;;;;;;4994273;28;20193;-86
2021/12/15 07:47:29;;;;;;;111.32;36.40;;;6.20;99.90;;;;;;5014261;28;20297;-85
2021/12/15 07:49:59;;;;;;;104.63;38.63;;;6.30;99.90;;;;;;4991679;28;20221;-82
2021/12/15 07:52:25;;;;;;;94.30;33.45;;;6.30;99.90;;;;;;5010058;28;20186;-84
2021/12/15 07:54:51;;;;;;;76.40;30.20;;;6.40;99.90;;;;;;4994125;28;20623;-82
2021/12/15 07:57:19;;;;;;;72.40;30.10;;;;;;;;;;5012490;28;20186;-83
2021/12/15 07:59:45;;;;;;;78.50;27.63;;;6.60;99.90;;;;;;5012702;28;20252;-85
2021/12/15 08:02:11;;;;;;;89.15;30.45;;;;;;;;;;5000743;28;20206;-85
2021/12/15 08:04:37;;;;;;;69.40;29.77;;;;;;;;;;5010068;28;20209;-84
2021/12/15 08:07:03;;;;;;;81.90;28.33;;;6.70;99.90;;;;;;5006562;28;20551;-82
2021/12/15 08:09:29;;;;;;;85.70;27.60;;;6.70;99.90;;;;;;4997004;28;20463;-86
2021/12/15 08:11:55;;;;;;;67.20;25.07;;;;;;;;;;4993803;28;20190;-85
2021/12/15 08:14:21;;;;;;;64.25;24.95;;;6.70;99.90;;;;;;5011800;28;20427;-82
2021/12/15 08:16:46;;;;;;;64.60;25.20;;;;;;;;;;5001702;28;20772;-85
2021/12/15 08:19:15;;;;;;;52.50;24.03;;;;;;;;;;5013045;28;20439;-84
2021/12/15 08:21:42;;;;;;;54.20;22.83;;;6.80;99.90;;;;;;5015393;28;20472;-84
2021/12/15 08:24:08;;;;;;;52.63;22.70;;;6.80;99.90;;;;;;4999355;28;20206;-85
2021/12/15 08:26:34;;;;;;;75.60;33.00;;;;;;;;;;4998262;28;20178;-86
2021/12/15 08:29:00;;;;;;;75.07;36.93;;;7.00;99.90;;;;;;5013198;28;20228;-84
2021/12/15 08:31:25;;;;;;;69.87;30.10;;;7.10;99.90;;;;;;4997196;28;20957;-82
2021/12/15 08:33:51;;;;;;;39.77;18.53;;;7.10;99.90;;;;;;5023391;28;20715;-86
2021/12/15 08:36:17;;;;;;;47.23;21.30;;;7.00;99.90;;;;;;5013956;28;20677;-85
2021/12/15 08:38:45;;;;;;;44.58;19.17;;;6.90;99.90;;;;;;4992736;28;20193;-85
2021/12/15 08:41:18;;;;;;;40.80;19.13;;;7.00;99.90;;;;;;4992363;28;20190;-80
2021/12/15 08:43:44;;;;;;;41.85;19.38;;;7.00;99.90;;;;;;5011978;28;20295;-83
2021/12/15 08:46:19;;;;;;;53.05;28.50;;;6.90;99.90;;;;;;4997260;28;21663;-84
2021/12/15 08:48:47;;;;;;;23.95;11.75;;;6.90;99.90;;;;;;5005354;28;20191;-85
2021/12/15 08:51:15;;;;;;;25.08;12.85;;;6.90;99.90;;;;;;5011546;28;20186;-85
2021/12/15 08:53:42;;;;;;;17.30;8.98;;;6.90;99.90;;;;;;4994993;28;20211;-83
2021/12/15 08:56:08;;;;;;;20.08;11.73;;;7.20;99.90;;;;;;5006787;28;20185;-84
2021/12/15 08:58:35;;;;;;;10.25;6.63;;;7.30;99.90;;;;;;4997466;28;20191;-85
2021/12/15 09:01:05;;;;;;;18.73;8.27;;;7.10;99.90;;;;;;5019774;28;20377;-81
2021/12/15 09:03:31;;;;;;;14.82;6.70;;;7.00;99.90;;;;;;5026110;28;20267;-85
2021/12/15 09:05:59;;;;;;;15.73;7.40;;;7.10;99.90;;;;;;4996115;28;20654;-82
2021/12/15 09:08:25;;;;;;;26.50;12.98;;;7.10;99.90;;;;;;4993403;28;20987;-85
2021/12/15 09:11:00;;;;;;;11.80;6.90;;;7.10;99.90;;;;;;5012839;28;20186;-80
2021/12/15 09:13:30;;;;;;;20.65;10.32;;;7.20;99.90;;;;;;5013163;28;20903;-84
2021/12/15 09:15:57;;;;;;;15.60;8.63;;;7.20;99.90;;;;;;4997078;28;20186;-84
2021/12/15 09:18:23;;;;;;;15.07;7.90;;;7.10;99.90;;;;;;4996200;28;20213;-85
2021/12/15 09:20:49;;;;;;;24.43;12.73;;;;;;;;;;5000597;28;20199;-84
2021/12/15 09:23:18;;;;;;;12.75;6.05;;;7.10;99.90;;;;;;5012499;28;20214;-86
2021/12/15 09:25:45;;;;;;;27.45;14.70;;;7.10;99.90;;;;;;5013646;28;20729;-84
2021/12/15 09:28:11;;;;;;;20.48;11.25;;;;;;;;;;4994302;28;20189;-85
2021/12/15 09:30:44;;;;;;;18.53;8.70;;;7.60;99.90;;;;;;4999079;28;20173;-81
2021/12/15 09:33:16;;;;;;;15.50;7.70;;;7.40;99.90;;;;;;4999932;28;21043;-84
2021/12/15 09:35:43;;;;;;;16.83;9.55;;;7.30;99.90;;;;;;5017044;28;20201;-81
2021/12/15 09:38:09;;;;;;;22.02;10.20;;;7.60;99.90;;;;;;4993429;28;20529;-84
2021/12/15 09:40:35;;;;;;;17.58;9.63;;;7.70;99.90;;;;;;4995667;28;20214;-84
2021/12/15 09:43:02;;;;;;;13.80;8.63;;;8.30;99.90;;;;;;5005244;28;20243;-84
2021/12/15 10:04:27;;;;;;;22.35;11.43;;;8.50;99.90;;;;;;5019141;28;20221;-84
2021/12/15 10:17:39;;;;;;;18.13;9.10;;;8.80;99.90;;;;;;5019701;28;20268;-82
2021/12/15 10:20:05;;;;;;;24.38;11.27;;;8.80;99.90;;;;;;4997410;28;20208;-85
2021/12/15 10:22:41;;;;;;;15.38;8.57;;;8.60;99.90;;;;;;4999889;28;20216;-81
2021/12/15 10:25:24;;;;;;;11.98;7.43;;;8.60;99.90;;;;;;4999897;28;20189;-85
2021/12/15 10:27:59;;;;;;;12.35;6.45;;;8.50;99.90;;;;;;5000234;28;20173;-81
2021/12/15 10:30:27;;;;;;;24.05;10.32;;;8.30;99.90;;;;;;5013071;28;20189;-84
2021/12/15 10:32:57;;;;;;;16.88;8.43;;;7.90;99.90;;;;;;5013779;28;20182;-85
2021/12/15 10:35:26;;;;;;;18.75;9.55;;;7.90;99.90;;;;;;5012185;28;20347;-85
2021/12/15 10:38:20;;;;;;;13.57;6.63;;;7.80;99.90;;;;;;5001798;28;20185;-83
2021/12/15 10:40:50;;;;;;;14.07;7.32;;;7.80;99.90;;;;;;4997254;28;20182;-82
2021/12/15 10:43:17;;;;;;;11.80;7.50;;;8.00;99.90;;;;;;4995990;28;20238;-83
2021/12/15 10:45:47;;;;;;;13.60;6.50;;;7.80;99.90;;;;;;4997508;28;20277;-85
2021/12/15 10:48:24;;;;;;;10.65;6.68;;;7.60;99.90;;;;;;4993321;28;20180;-85
2021/12/15 10:50:51;;;;;;;14.02;8.07;;;7.60;99.90;;;;;;4992244;28;20185;-83
2021/12/15 10:53:31;;;;;;;8.90;6.15;;;7.60;99.90;;;;;;4999416;28;20225;-83
2021/12/15 10:55:56;;;;;;;12.63;7.00;;;7.70;99.90;;;;;;5011715;28;20193;-83
2021/12/15 10:58:41;;;;;;;15.30;7.00;;;7.90;99.90;;;;;;5001524;28;20201;-85
2021/12/15 11:01:37;;;;;;;10.13;6.50;;;7.80;99.90;;;;;;4995760;28;20276;-82
2021/12/15 11:04:20;;;;;;;11.05;6.47;;;8.00;99.90;;;;;;5009362;28;20205;-83
2021/12/15 11:06:59;;;;;;;11.02;7.20;;;7.90;99.90;;;;;;5000712;28;20197;-82
2021/12/15 11:09:24;;;;;;;14.80;7.07;;;7.90;99.90;;;;;;4998734;28;20181;-83
2021/12/15 11:12:04;;;;;;;9.47;6.20;;;7.80;99.90;;;;;;4996209;28;20811;-85
2021/12/15 11:14:37;;;;;;;9.82;5.65;;;7.90;99.90;;;;;;5002060;28;20221;-84
2021/12/15 11:17:19;;;;;;;10.20;5.75;;;8.00;99.90;;;;;;4997269;28;20186;-85
2021/12/15 11:19:50;;;;;;;10.15;6.45;;;8.00;99.90;;;;;;5009942;28;20418;-82
2021/12/15 11:22:35;;;;;;;13.57;6.70;;;8.10;99.90;;;;;;4995922;28;20271;-84
2021/12/15 11:25:05;;;;;;;9.48;5.40;;;8.10;99.90;;;;;;4988258;28;20524;-82
2021/12/15 11:27:31;;;;;;;12.23;6.63;;;8.00;99.90;;;;;;5002706;28;20181;-87
2021/12/15 11:29:57;;;;;;;9.33;6.03;;;;;;;;;;5006659;28;20702;-82
2021/12/15 11:32:37;;;;;;;13.50;7.15;;;7.80;99.90;;;;;;4991263;28;20213;-86
2021/12/15 11:35:20;;;;;;;10.73;5.90;;;7.90;99.90;;;;;;5012286;28;20177;-85
2021/12/15 11:37:54;;;;;;;7.80;5.10;;;8.00;99.90;;;;;;5009513;28;20201;-83
2021/12/15 11:40:31;;;;;;;11.75;6.00;;;7.80;99.90;;;;;;5015804;28;20530;-88
2021/12/15 11:42:56;;;;;;;12.82;6.72;;;7.70;99.90;;;;;;4998524;28;20666;-86
2021/12/15 11:45:23;;;;;;;10.87;4.83;;;7.70;99.90;;;;;;5007204;28;20252;-81
2021/12/15 11:47:49;;;;;;;5.20;3.42;;;;;;;;;;4995385;28;20231;-85
2021/12/15 11:50:19;;;;;;;12.07;6.40;;;7.30;99.90;;;;;;5014907;28;20178;-85
2021/12/15 11:52:47;;;;;;;6.00;3.35;;;7.70;99.90;;;;;;5001810;28;20444;-84
2021/12/15 11:55:28;;;;;;;6.90;4.40;;;7.70;99.90;;;;;;5024829;28;20194;-83
2021/12/15 11:57:55;;;;;;;7.15;4.65;;;7.60;99.90;;;;;;5003235;28;20247;-82
2021/12/15 12:00:24;;;;;;;6.88;4.50;;;7.80;99.90;;;;;;5014172;28;20633;-82
2021/12/15 12:02:53;;;;;;;5.95;4.35;;;7.70;99.90;;;;;;4995686;28;20761;-84
2021/12/15 12:05:19;;;;;;;5.68;4.07;;;7.70;99.90;;;;;;5016250;28;20209;-82
2021/12/15 12:07:53;;;;;;;8.23;4.67;;;7.80;99.90;;;;;;5038012;28;20174;-84
2021/12/15 12:10:22;;;;;;;6.93;4.85;;;;;;;;;;5011760;28;20182;-86
2021/12/15 12:12:56;;;;;;;5.72;4.70;;;7.90;99.90;;;;;;5005245;28;20189;-82
2021/12/15 12:15:24;;;;;;;8.13;4.07;;;8.00;99.90;;;;;;4999119;28;20206;-84
2021/12/15 12:17:52;;;;;;;8.32;4.00;;;8.00;99.90;;;;;;4998500;28;20189;-85
2021/12/15 12:20:26;;;;;;;6.00;4.15;;;7.90;99.90;;;;;;4997335;28;20189;-84
2021/12/15 12:22:53;;;;;;;9.15;5.30;;;7.90;99.90;;;;;;4998275;28;20268;-84
2021/12/15 12:25:24;;;;;;;9.60;5.65;;;7.90;99.90;;;;;;5015783;28;20745;-83
2021/12/15 12:27:50;;;;;;;7.75;4.78;;;8.00;99.90;;;;;;4996715;28;20189;-84
2021/12/15 12:30:23;;;;;;;6.20;3.95;;;8.10;99.90;;;;;;5018901;28;20244;-84
2021/12/15 12:32:49;;;;;;;15.43;7.70;;;8.00;99.90;;;;;;5012065;28;20240;-85
2021/12/15 12:35:22;;;;;;;7.13;4.70;;;8.00;99.90;;;;;;4995529;28;20182;-82
2021/12/15 12:37:59;;;;;;;9.48;5.78;;;7.90;99.90;;;;;;5009301;28;20476;-83
2021/12/15 12:40:31;;;;;;;8.05;5.10;;;8.00;99.90;;;;;;5003202;28;20284;-84
2021/12/15 12:42:57;;;;;;;7.15;4.65;;;;;;;;;;4999213;28;20620;-82
2021/12/15 12:45:38;;;;;;;9.40;4.78;;;8.10;99.90;;;;;;4996831;28;20189;-82
2021/12/15 12:59:38;;;;;;;10.73;5.85;;;7.70;99.90;;;;;;5017997;28;20204;-86
2021/12/15 13:02:33;;;;;;;11.02;5.55;;;7.80;99.90;;;;;;4998539;28;20292;-86
2021/12/15 13:04:59;;;;;;;10.57;5.85;;;7.80;99.90;;;;;;4995984;28;20208;-84
2021/12/15 13:07:49;;;;;;;9.00;5.57;;;7.80;99.90;;;;;;5015485;28;20276;-81
2021/12/15 13:10:17;;;;;;;9.02;5.72;;;7.70;99.90;;;;;;5009293;28;20197;-82
2021/12/15 13:12:47;;;;;;;9.93;6.60;;;7.60;99.90;;;;;;5004398;28;20409;-86
2021/12/15 13:15:21;;;;;;;10.98;6.70;;;7.60;99.90;;;;;;5004695;28;20208;-83
2021/12/15 13:17:58;;;;;;;19.17;9.63;;;7.60;99.90;;;;;;5023945;28;20215;-82
2021/12/15 13:20:30;;;;;;;14.85;7.47;;;7.50;99.90;;;;;;5002453;28;20193;-84
2021/12/15 13:23:18;;;;;;;11.68;6.85;;;;;;;;;;5017491;28;20576;-83
2021/12/15 13:31:28;;;;;;;11.23;7.70;;;7.30;99.90;;;;;;5011232;28;20186;-88
2021/12/15 13:33:57;;;;;;;9.00;6.80;;;7.90;99.90;;;;;;5019108;28;20202;-85
2021/12/15 13:36:29;;;;;;;11.93;7.22;;;7.40;99.90;;;;;;5012700;28;20211;-82
2021/12/15 13:38:57;;;;;;;10.75;6.70;;;7.50;99.90;;;;;;5001929;28;20209;-84
2021/12/15 13:41:36;;;;;;;10.18;6.43;;;7.50;99.90;;;;;;5013766;28;20676;-85
2021/12/15 13:44:48;;;;;;;8.50;5.70;;;7.50;99.90;;;;;;5011942;28;20247;-82
2021/12/15 13:47:28;;;;;;;12.23;6.00;;;7.60;99.90;;;;;;4997445;28;20618;-84
2021/12/15 13:50:13;;;;;;;10.02;6.20;;;7.50;99.90;;;;;;5005597;28;20182;-82
2021/12/15 13:52:43;;;;;;;8.82;5.38;;;7.50;99.90;;;;;;5014370;28;20182;-86
2021/12/15 13:55:27;;;;;;;8.75;6.32;;;7.50;99.90;;;;;;5023554;28;20175;-85
2021/12/15 13:58:08;;;;;;;9.85;6.35;;;7.40;99.90;;;;;;5007488;28;20196;-84
2021/12/15 14:00:46;;;;;;;11.40;6.22;;;7.20;99.90;;;;;;5001107;28;20209;-85
2021/12/15 14:03:12;;;;;;;8.88;5.97;;;;;;;;;;5003315;28;20229;-87
2021/12/15 14:05:42;;;;;;;8.55;5.72;;;7.30;99.90;;;;;;5011451;28;20249;-85
2021/12/15 14:08:13;;;;;;;8.98;5.97;;;7.30;99.90;;;;;;5010727;28;20181;-85
2021/12/15 14:10:44;;;;;;;10.48;6.55;;;7.50;99.90;;;;;;4999847;28;20178;-83
2021/12/15 14:13:10;;;;;;;10.35;6.40;;;;;;;;;;4997483;28;20252;-86
2021/12/15 14:15:38;;;;;;;8.57;6.10;;;7.50;99.90;;;;;;5013344;28;20190;-85
2021/12/15 14:18:04;;;;;;;12.35;7.80;;;;;;;;;;5022418;28;20177;-84
2021/12/15 14:20:33;;;;;;;18.53;6.13;;;7.30;99.90;;;;;;5011443;28;20803;-87
2021/12/15 14:23:09;;;;;;;10.25;6.50;;;7.30;99.90;;;;;;4998269;28;21014;-83
2021/12/15 14:25:37;;;;;;;8.70;6.22;;;7.30;99.90;;;;;;5012736;28;20196;-87
2021/12/15 14:28:27;;;;;;;9.45;6.80;;;7.40;99.90;;;;;;4993412;28;20178;-86
2021/12/15 14:31:04;;;;;;;9.05;6.20;;;7.30;99.90;;;;;;5016268;28;20261;-84
2021/12/15 14:33:34;;;;;;;8.15;6.13;;;7.20;99.90;;;;;;5001163;28;20203;-82
2021/12/15 14:36:07;;;;;;;10.80;6.53;;;7.10;99.90;;;;;;5004058;28;20213;-83